Time;durP1;ratioP1;P1;durP2;ratioP2;P2;SDS_P1;SDS_P2;PMS_P1;PMS_P2;Temp;Humidity;BMP_temperature;BMP_pressure;BME280_temperature;BME280_humidity;BME280_pressure;Samples;Min_cycle;Max_cycle;Signal;HPM_P1;HPM_P2
2022/10/28 00:02:19;;;;;;;21.35;6.68;;;;;;;-143.48;85.75;78605.16;5013234;28;20062;-71
2022/10/28 00:04:44;;;;;;;16.83;6.90;;;;;;;-143.48;86.94;78611.09;5013705;28;20370;-70
2022/10/28 00:07:09;;;;;;;18.10;6.07;;;;;;;-143.48;87.13;78613.06;5013924;28;20026;-70
2022/10/28 00:09:34;;;;;;;21.52;6.80;;;;;;;-143.48;87.54;78623.00;5013348;28;20026;-70
2022/10/28 00:12:00;;;;;;;18.85;6.30;;;;;;;-143.48;87.42;78619.03;5012115;28;20462;-70
2022/10/28 00:14:25;;;;;;;18.92;6.53;;;;;;;-143.48;88.11;78607.13;5028641;28;20030;-70
2022/10/28 00:16:50;;;;;;;17.48;6.65;;;;;;;-143.48;88.07;78619.03;5013843;28;20417;-70
2022/10/28 00:19:16;;;;;;;21.25;6.40;;;;;;;-143.48;88.27;78621.00;5013684;28;20365;-70
2022/10/28 00:21:43;;;;;;;13.38;6.57;;;;;;;-143.48;88.44;78613.06;5013800;28;20397;-70
2022/10/28 00:24:10;;;;;;;18.95;6.90;;;;;;;-143.48;88.56;78607.13;5012799;28;20026;-70
2022/10/28 00:26:37;;;;;;;23.38;6.18;;;;;;;-143.48;88.75;78603.16;5012770;28;20028;-70
2022/10/28 00:29:11;;;;;;;18.63;6.60;;;;;;;-143.48;88.40;78595.22;5012557;28;20061;-70
2022/10/28 00:31:37;;;;;;;17.15;6.68;;;;;;;-143.48;87.83;78587.28;5012710;28;20030;-70
2022/10/28 00:34:05;;;;;;;13.93;6.20;;;;;;;-143.48;87.81;78583.31;5012536;28;20438;-70
2022/10/28 00:36:33;;;;;;;19.10;6.97;;;;;;;-143.48;87.81;78581.34;5012685;28;20032;-70
2022/10/28 00:39:00;;;;;;;24.85;6.65;;;;;;;-143.48;87.63;78585.31;5012592;28;20037;-70
2022/10/28 00:41:34;;;;;;;17.20;6.57;;;;;;;-143.48;88.07;78595.22;5012633;28;20072;-70
2022/10/28 00:44:37;;;;;;;14.27;6.22;;;;;;;-143.48;87.94;78599.19;5013391;28;20068;-71
2022/10/28 00:47:04;;;;;;;21.87;6.70;;;;;;;-143.48;88.17;78605.16;5013412;28;20061;-70
2022/10/28 00:49:33;;;;;;;17.95;6.55;;;;;;;-143.48;88.06;78619.03;5017017;28;20029;-70
2022/10/28 00:52:17;;;;;;;16.67;6.38;;;;;;;-143.48;88.85;78624.97;5016881;28;20026;-70
2022/10/28 00:54:44;;;;;;;17.35;6.53;;;;;;;-143.48;88.95;78624.97;5015684;28;20054;-71
2022/10/28 00:57:13;;;;;;;15.95;6.93;;;;;;;-143.48;89.26;78624.97;5015805;28;20029;-71
2022/10/28 00:59:43;;;;;;;23.05;6.85;;;;;;;-143.48;89.13;78621.00;5015886;28;20033;-70
2022/10/28 01:02:08;;;;;;;16.80;6.82;;;;;;;-143.48;89.13;78623.00;5015697;28;20353;-70
2022/10/28 01:04:33;;;;;;;16.15;7.15;;;;;;;-143.48;88.92;78623.00;5015757;28;20032;-71
2022/10/28 01:07:00;;;;;;;18.58;7.18;;;;;;;-143.48;89.17;78624.97;5015854;28;20030;-71
2022/10/28 01:09:25;;;;;;;17.38;7.22;;;;;;;-143.48;89.56;78644.81;5016932;28;20097;-70
2022/10/28 01:11:50;;;;;;;18.42;7.15;;;;;;;-143.48;89.71;78664.66;5016820;28;20022;-70
2022/10/28 01:14:33;;;;;;;16.48;6.85;;;;;;;-143.48;90.20;78656.72;5015662;28;20025;-70
2022/10/28 01:17:09;;;;;;;17.13;7.15;;;;;;;-143.48;89.83;78658.69;5015636;28;20034;-70
2022/10/28 01:19:53;;;;;;;14.73;7.25;;;;;;;-143.48;90.75;78666.63;5017096;28;20022;-70
2022/10/28 01:22:39;;;;;;;15.82;6.75;;;;;;;-143.48;90.25;78664.66;5016991;28;20112;-70
2022/10/28 01:25:14;;;;;;;19.92;7.07;;;;;;;-143.48;90.27;78682.50;5016468;28;20014;-70
2022/10/28 01:28:16;;;;;;;21.20;7.22;;;;;;;-143.48;90.68;78688.44;5016831;28;20492;-70
2022/10/28 01:31:00;;;;;;;14.93;6.57;;;;;;;-143.48;91.07;78688.44;5016726;28;20030;-70
2022/10/28 01:33:31;;;;;;;17.45;6.95;;;;;;;-143.48;91.25;78670.59;5016238;28;20026;-70
2022/10/28 01:36:09;;;;;;;18.83;7.30;;;;;;;-143.48;91.86;78642.81;5016451;28;20025;-70
2022/10/28 01:38:43;;;;;;;16.67;7.00;;;;;;;-143.48;90.82;78638.84;5015427;28;20160;-70
2022/10/28 01:41:12;;;;;;;20.23;6.85;;;;;;;-143.48;90.58;78626.97;5016390;28;20036;-71
2022/10/28 01:43:56;;;;;;;17.52;7.25;;;;;;;-143.48;90.34;78621.00;5016579;28;20101;-70
2022/10/28 01:46:36;;;;;;;15.95;6.75;;;;;;;-143.48;89.79;78626.97;5016263;28;20030;-70
2022/10/28 01:49:11;;;;;;;22.23;7.00;;;;;;;-143.48;89.64;78615.06;5016393;28;20026;-71
2022/10/28 01:51:42;;;;;;;18.48;6.95;;;;;;;-143.48;89.36;78605.16;5016141;28;20053;-70
2022/10/28 01:54:10;;;;;;;17.02;7.05;;;;;;;-143.48;89.07;78609.09;5016175;28;20046;-70
2022/10/28 01:56:39;;;;;;;14.50;6.43;;;;;;;-143.48;89.17;78601.19;5015038;28;20034;-70
2022/10/28 01:59:09;;;;;;;19.58;6.75;;;;;;;-143.48;88.84;78599.19;5014860;28;20030;-70
2022/10/28 02:01:35;;;;;;;21.05;7.25;;;;;;;-143.48;88.77;78605.16;5016137;28;20527;-71
2022/10/28 02:04:01;;;;;;;18.10;6.85;;;;;;;-143.48;89.34;78607.13;5015806;28;20026;-70
2022/10/28 02:06:30;;;;;;;21.38;7.07;;;;;;;-143.48;89.23;78605.16;5015804;28;20030;-71
2022/10/28 02:09:13;;;;;;;18.90;7.03;;;;;;;-143.48;89.54;78603.16;5016324;28;20022;-70
2022/10/28 02:11:55;;;;;;;16.60;6.63;;;;;;;-143.48;89.21;78593.25;5015808;28;20030;-70
2022/10/28 02:14:36;;;;;;;20.42;7.03;;;;;;;-143.48;89.10;78587.28;5014289;28;20092;-70
2022/10/28 02:17:18;;;;;;;14.05;6.40;;;;;;;-143.48;88.79;78587.28;5015724;28;20030;-70
2022/10/28 02:19:59;;;;;;;19.13;6.97;;;;;;;-143.48;89.04;78595.22;5015652;28;20037;-70
2022/10/28 02:22:31;;;;;;;16.40;6.78;;;;;;;-143.48;89.08;78591.25;5015468;28;20072;-71
2022/10/28 02:25:14;;;;;;;14.02;6.90;;;;;;;-143.48;88.27;78599.19;5015510;28;20108;-70
2022/10/28 02:27:39;;;;;;;17.35;6.65;;;;;;;-143.48;88.86;78593.25;5014397;28;20026;-70
2022/10/28 02:30:13;;;;;;;12.48;6.30;;;;;;;-143.48;88.97;78599.19;5015446;28;20108;-72
2022/10/28 02:32:43;;;;;;;22.95;7.10;;;;;;;-143.48;88.61;78595.22;5030660;28;20042;-71
2022/10/28 02:35:26;;;;;;;17.25;6.40;;;;;;;-143.48;89.01;78591.25;5015786;28;20442;-69
2022/10/28 02:37:53;;;;;;;19.42;6.47;;;;;;;-143.48;89.04;78591.25;5016660;28;20060;-70
2022/10/28 02:40:23;;;;;;;18.05;6.72;;;;;;;-143.48;89.10;78591.25;5016098;28;20033;-71
2022/10/28 02:42:56;;;;;;;17.30;7.10;;;;;;;-143.48;89.23;78587.28;5015856;28;20022;-69
2022/10/28 02:45:27;;;;;;;16.38;7.13;;;;;;;-143.48;88.92;78597.22;5015555;28;20053;-71
2022/10/28 02:48:05;;;;;;;19.00;7.25;;;;;;;-143.48;88.79;78599.19;5015691;28;20569;-70
2022/10/28 02:50:34;;;;;;;15.63;6.60;;;;;;;-143.48;88.69;78595.22;5015268;28;20068;-70
2022/10/28 02:53:03;;;;;;;18.20;6.68;;;;;;;-143.48;88.97;78597.22;5015371;28;20026;-70
2022/10/28 02:55:36;;;;;;;21.45;6.90;;;;;;;-143.48;88.92;78591.25;5015386;28;20183;-71
2022/10/28 02:58:02;;;;;;;18.33;6.85;;;;;;;-143.48;88.34;78583.31;5015250;28;20030;-70
2022/10/28 03:00:27;;;;;;;15.45;6.72;;;;;;;-143.48;88.17;78583.31;5014938;28;20092;-70
2022/10/28 03:02:52;;;;;;;14.90;7.10;;;;;;;-143.48;88.10;78583.31;5014759;28;20018;-70
2022/10/28 03:05:18;;;;;;;21.83;6.60;;;;;;;-143.48;87.69;78573.41;5015122;28;20410;-70
2022/10/28 03:07:44;;;;;;;18.60;6.35;;;;;;;-143.48;87.49;78571.44;5013625;28;20040;-71
2022/10/28 03:10:09;;;;;;;13.18;6.40;;;;;;;-143.48;87.26;78575.41;5014644;28;20029;-73
2022/10/28 03:12:34;;;;;;;18.60;6.80;;;;;;;-143.48;87.36;78579.34;5014634;28;20109;-71
2022/10/28 03:15:01;;;;;;;22.42;7.38;;;;;;;-143.48;87.84;78583.31;5014632;28;20080;-72
2022/10/28 03:17:27;;;;;;;19.67;6.20;;;;;;;-143.48;87.49;78571.44;5014722;28;20032;-70
2022/10/28 03:19:52;;;;;;;17.83;6.40;;;;;;;-143.48;87.00;78563.50;5014731;28;20033;-70
2022/10/28 03:22:17;;;;;;;17.45;6.10;;;;;;;-143.48;86.65;78565.47;5014704;28;20025;-70
2022/10/28 03:24:43;;;;;;;19.33;6.93;;;;;;;-143.48;86.69;78567.47;5014440;28;20148;-71
2022/10/28 03:27:08;;;;;;;21.17;6.90;;;;;;;-143.48;86.50;78557.53;5014242;28;20030;-71
2022/10/28 03:29:33;;;;;;;17.77;6.72;;;;;;;-143.48;86.16;78555.56;5014569;28;20057;-71
2022/10/28 03:31:58;;;;;;;19.38;6.70;;;;;;;-143.48;86.13;78551.59;5029561;28;20053;-70
2022/10/28 03:34:24;;;;;;;15.82;6.53;;;;;;;-143.48;85.75;78539.69;5014482;28;20022;-71
2022/10/28 03:36:49;;;;;;;25.85;7.13;;;;;;;-143.48;85.47;78535.72;5014193;28;20022;-70
2022/10/28 03:39:14;;;;;;;15.63;5.90;;;;;;;-143.48;85.43;78527.78;5014249;28;20062;-71
2022/10/28 03:41:40;;;;;;;17.60;6.53;;;;;;;-143.48;85.10;78531.75;5014179;28;20021;-71
2022/10/28 03:44:05;;;;;;;15.98;5.75;;;;;;;-143.48;84.55;78515.91;5029628;28;20032;-70
2022/10/28 03:46:31;;;;;;;14.52;5.90;;;;;;;-143.48;84.15;78509.94;5014152;28;20072;-71
2022/10/28 03:48:56;;;;;;;17.50;6.03;;;;;;;-143.48;84.66;78523.81;5014130;28;20104;-70
2022/10/28 03:51:21;;;;;;;14.35;6.28;;;;;;;-143.48;84.89;78515.91;5014303;28;20410;-70
2022/10/28 03:53:46;;;;;;;18.02;6.18;;;;;;;-143.48;84.75;78521.84;5013781;28;20553;-70
2022/10/28 03:56:12;;;;;;;16.52;6.38;;;;;;;-143.48;84.80;78511.94;5014052;28;20026;-71
2022/10/28 03:58:37;;;;;;;16.42;6.30;;;;;;;-143.48;84.85;78523.81;5029076;28;20393;-70
2022/10/28 04:01:03;;;;;;;19.23;6.25;;;;;;;-143.48;84.78;78521.84;5014099;28;20369;-71
2022/10/28 04:03:28;;;;;;;23.27;5.95;;;;;;;-143.48;84.76;78531.75;5013872;28;20032;-72
2022/10/28 04:05:53;;;;;;;15.52;6.63;;;;;;;-143.48;85.28;78541.69;5013658;28;20551;-70
2022/10/28 04:08:20;;;;;;;15.13;6.53;;;;;;;-143.48;85.33;78539.69;5013986;28;20021;-71
2022/10/28 04:10:46;;;;;;;19.92;6.45;;;;;;;-143.48;85.25;78543.66;5013888;28;20037;-73
2022/10/28 04:13:12;;;;;;;21.95;6.25;;;;;;;-143.48;85.55;78543.66;5013856;28;20052;-71
2022/10/28 04:15:38;;;;;;;17.63;6.40;;;;;;;-143.48;85.35;78547.63;5013824;28;20030;-70
2022/10/28 04:18:03;;;;;;;25.95;7.05;;;;;;;-143.48;85.53;78551.59;5013862;28;20044;-71
2022/10/28 04:20:30;;;;;;;17.80;6.57;;;;;;;-143.48;85.21;78549.59;5028897;28;20517;-71
2022/10/28 04:22:55;;;;;;;17.98;6.82;;;;;;;-143.48;85.19;78557.53;5015391;28;20109;-71
2022/10/28 04:25:21;;;;;;;20.25;7.32;;;;;;;-143.48;84.97;78547.63;5017655;28;20061;-70
2022/10/28 04:27:47;;;;;;;16.23;5.97;;;;;;;-143.48;85.02;78541.69;5016468;28;20083;-70
2022/10/28 04:30:13;;;;;;;28.48;6.80;;;;;;;-143.48;84.84;78541.69;5017791;28;20037;-71
2022/10/28 04:32:39;;;;;;;22.92;6.15;;;;;;;-143.48;85.01;78551.59;5017628;28;20026;-71
2022/10/28 04:35:05;;;;;;;15.00;6.32;;;;;;;-143.48;85.25;78553.56;5017460;28;20034;-70
2022/10/28 04:37:30;;;;;;;17.73;6.13;;;;;;;-143.48;85.32;78555.56;5017473;28;20072;-70
2022/10/28 04:39:55;;;;;;;22.67;6.85;;;;;;;-143.48;85.28;78551.59;5017570;28;20026;-72
2022/10/28 04:42:22;;;;;;;15.88;6.28;;;;;;;-143.48;85.25;78559.53;5017587;28;20030;-70
2022/10/28 04:44:47;;;;;;;17.90;6.57;;;;;;;-143.48;85.49;78559.53;5017150;28;20426;-70
2022/10/28 04:47:13;;;;;;;16.75;6.40;;;;;;;-143.48;85.48;78563.50;5017415;28;20026;-72
2022/10/28 04:49:38;;;;;;;19.80;6.43;;;;;;;-143.48;85.54;78555.56;5017368;28;20156;-70
2022/10/28 04:52:03;;;;;;;22.83;6.68;;;;;;;-143.48;85.36;78555.56;5032443;28;20112;-70
2022/10/28 04:54:29;;;;;;;22.48;6.80;;;;;;;-143.48;85.11;78557.53;5016863;28;20049;-70
2022/10/28 04:56:54;;;;;;;17.88;6.32;;;;;;;-143.48;85.25;78569.44;5017037;28;20600;-71
2022/10/28 04:59:19;;;;;;;23.27;6.95;;;;;;;-143.48;85.35;78557.53;5017179;28;20551;-71
2022/10/28 05:01:45;;;;;;;14.68;6.03;;;;;;;-143.48;85.10;78565.47;5017201;28;20101;-71
2022/10/28 05:04:10;;;;;;;18.38;6.25;;;;;;;-143.48;85.29;78565.47;5015968;28;20026;-70
2022/10/28 05:06:35;;;;;;;17.70;6.78;;;;;;;-143.48;85.47;78571.44;5016903;28;20026;-70
2022/10/28 05:09:01;;;;;;;18.80;7.05;;;;;;;-143.48;85.63;78569.44;5017079;28;20030;-71
2022/10/28 05:11:26;;;;;;;24.75;6.82;;;;;;;-143.48;85.60;78567.47;5015676;28;20029;-71
2022/10/28 05:13:54;;;;;;;17.23;6.63;;;;;;;-143.48;85.61;78565.47;5016798;28;20091;-71
2022/10/28 05:16:20;;;;;;;13.65;6.18;;;;;;;-143.48;85.57;78565.47;5016913;28;20056;-72
2022/10/28 05:18:45;;;;;;;16.60;6.72;;;;;;;-143.48;85.74;78567.47;5016728;28;20018;-71
2022/10/28 05:21:29;;;;;;;16.33;6.55;;;;;;;-143.48;85.65;78569.44;5016465;28;20018;-71
2022/10/28 05:23:54;;;;;;;16.55;6.60;;;;;;;-143.48;85.51;78577.38;5016283;28;20041;-70
2022/10/28 05:26:20;;;;;;;23.52;6.85;;;;;;;-143.48;85.93;78581.34;5016207;28;20062;-71
2022/10/28 05:28:49;;;;;;;19.65;6.90;;;;;;;-143.48;86.00;78565.47;5016220;28;20709;-70
2022/10/28 05:31:17;;;;;;;17.70;6.93;;;;;;;-143.48;85.54;78571.44;5014929;28;20392;-70
2022/10/28 05:33:43;;;;;;;22.10;7.57;;;;;;;-143.48;85.51;78575.41;5015662;28;20076;-71
2022/10/28 05:36:09;;;;;;;18.67;6.50;;;;;;;-143.48;85.34;78561.50;5016523;28;20038;-71
2022/10/28 05:38:34;;;;;;;17.95;6.80;;;;;;;-143.48;85.55;78571.44;5032415;28;20117;-70
2022/10/28 05:41:00;;;;;;;22.58;7.45;;;;;;;-143.48;85.50;78559.53;5016116;28;20112;-71
2022/10/28 05:43:25;;;;;;;18.58;6.72;;;;;;;-143.48;85.33;78567.47;5014549;28;20105;-70
2022/10/28 05:45:52;;;;;;;24.10;7.25;;;;;;;-143.48;85.40;78575.41;5015702;28;20029;-70
2022/10/28 05:48:18;;;;;;;26.42;6.63;;;;;;;-143.48;85.49;78577.38;5015728;28;20044;-71
2022/10/28 05:50:43;;;;;;;20.10;7.18;;;;;;;-143.48;85.69;78577.38;5015610;28;20416;-70
2022/10/28 05:53:08;;;;;;;23.65;6.97;;;;;;;-143.48;85.53;78579.34;5015240;28;20557;-70
2022/10/28 05:55:34;;;;;;;20.23;7.05;;;;;;;-143.48;85.68;78579.34;5014623;28;20088;-70
2022/10/28 05:57:59;;;;;;;21.05;6.70;;;;;;;-143.48;85.77;78579.34;5015376;28;20018;-70
2022/10/28 06:00:25;;;;;;;17.83;7.43;;;;;;;-143.48;85.41;78577.38;5015200;28;20093;-70
2022/10/28 06:02:51;;;;;;;15.18;6.70;;;;;;;-143.48;85.65;78581.34;5015422;28;20022;-71
2022/10/28 06:05:17;;;;;;;18.25;6.65;;;;;;;-143.48;85.70;78585.31;5015314;28;20090;-71
2022/10/28 06:07:42;;;;;;;24.67;7.32;;;;;;;-143.48;85.72;78589.28;5015458;28;20167;-71
2022/10/28 06:10:09;;;;;;;15.65;6.55;;;;;;;-143.48;85.96;78593.25;5015195;28;20033;-69
2022/10/28 06:12:35;;;;;;;24.10;7.18;;;;;;;-143.48;86.01;78593.25;5015373;28;20473;-71
2022/10/28 06:15:00;;;;;;;19.67;6.50;;;;;;;-143.48;86.16;78597.22;5030382;28;20033;-71
2022/10/28 06:17:26;;;;;;;20.60;6.88;;;;;;;-143.48;85.86;78599.19;5031036;28;20055;-71
2022/10/28 06:20:04;;;;;;;20.70;7.07;;;;;;;-143.48;86.40;78611.09;5031349;28;20022;-70
2022/10/28 06:22:33;;;;;;;19.77;6.60;;;;;;;-143.48;86.26;78601.19;5016127;28;20449;-70
2022/10/28 06:25:26;;;;;;;20.23;7.93;;;;;;;-143.48;86.29;78603.16;5016767;28;20537;-70
2022/10/28 06:27:56;;;;;;;23.92;6.63;;;;;;;-143.48;86.36;78603.16;5016303;28;20038;-71
2022/10/28 06:30:24;;;;;;;23.63;7.18;;;;;;;-143.48;86.35;78611.09;5015707;28;20103;-70
2022/10/28 06:32:49;;;;;;;18.13;6.78;;;;;;;-143.48;86.04;78597.22;5014272;28;20026;-71
2022/10/28 06:35:14;;;;;;;16.92;6.45;;;;;;;-143.48;85.57;78599.19;5013402;28;20116;-71
2022/10/28 06:37:40;;;;;;;23.10;6.75;;;;;;;-143.48;85.81;78609.09;5014730;28;20033;-72
2022/10/28 06:40:06;;;;;;;19.73;6.80;;;;;;;-143.48;85.65;78607.13;5014773;28;20021;-71
2022/10/28 06:42:31;;;;;;;20.30;6.72;;;;;;;-143.48;85.28;78609.09;5014629;28;20029;-71
2022/10/28 06:44:56;;;;;;;22.38;6.93;;;;;;;-143.48;85.11;78595.22;5013763;28;20018;-72
2022/10/28 06:47:22;;;;;;;21.88;7.28;;;;;;;-143.48;84.83;78595.22;5014749;28;20026;-73
2022/10/28 06:49:47;;;;;;;24.23;7.40;;;;;;;-143.48;84.24;78579.34;5015098;28;20436;-72
2022/10/28 06:52:12;;;;;;;17.95;6.63;;;;;;;-143.48;83.69;78581.34;5013334;28;20026;-73
2022/10/28 06:54:38;;;;;;;22.65;6.20;;;;;;;-143.48;83.69;78575.41;5014006;28;20512;-72
2022/10/28 06:57:03;;;;;;;16.65;5.78;;;;;;;-143.48;84.12;78579.34;5012931;28;20026;-71
2022/10/28 06:59:29;;;;;;;15.10;5.78;;;;;;;-143.48;83.09;78551.59;5014308;28;20022;-71
2022/10/28 07:01:54;;;;;;;16.08;7.03;;;;;;;-143.48;82.47;78543.66;5014089;28;20049;-72
2022/10/28 07:04:19;;;;;;;18.27;6.40;;;;;;;-143.48;82.38;78555.56;5014268;28;20021;-72
2022/10/28 07:06:45;;;;;;;13.55;5.30;;;;;;;-143.48;82.80;78543.66;5014158;28;20056;-72
2022/10/28 07:09:13;;;;;;;19.40;6.50;;;;;;;-143.48;81.97;78539.69;5014151;28;20024;-73
2022/10/28 07:11:39;;;;;;;13.02;5.57;;;;;;;-143.48;81.42;78533.75;5012862;28;20113;-71
2022/10/28 07:14:04;;;;;;;21.13;6.07;;;;;;;-143.48;81.41;78537.72;5012852;28;20083;-72
2022/10/28 07:16:30;;;;;;;20.35;5.68;;;;;;;-143.48;80.89;78515.91;5013695;28;20465;-72
2022/10/28 07:18:55;;;;;;;23.30;5.68;;;;;;;-143.48;80.35;78513.91;5012899;28;20037;-71
2022/10/28 07:21:23;;;;;;;17.48;5.90;;;;;;;-143.48;79.66;78480.19;5012830;28;20592;-72
2022/10/28 07:23:48;;;;;;;15.05;5.40;;;;;;;-143.48;79.00;78488.13;5013222;28;20385;-72
2022/10/28 07:26:14;;;;;;;14.93;6.05;;;;;;;-143.48;79.25;78492.09;5013198;28;20022;-73
2022/10/28 07:28:39;;;;;;;22.52;6.43;;;;;;;-143.48;79.13;78474.25;5013397;28;20037;-72
2022/10/28 07:31:05;;;;;;;18.52;5.25;;;;;;;-143.48;74.62;78359.22;5014247;28;20022;-72
2022/10/28 07:33:30;;;;;;;15.40;5.40;;;;;;;-143.48;69.70;78262.03;5012580;28;20112;-71
2022/10/28 07:35:55;;;;;;;15.50;5.45;;;;;;;-143.48;66.93;78182.72;5012538;28;20018;-71
2022/10/28 07:38:21;;;;;;;17.30;4.95;;;;;;;-143.48;62.60;78057.78;5013773;28;20473;-71
2022/10/28 07:40:46;;;;;;;17.13;5.22;;;;;;;-143.48;60.38;77996.31;5013581;28;20162;-72
2022/10/28 07:43:12;;;;;;;14.13;5.03;;;;;;;-143.48;59.70;78008.22;5013564;28;20049;-72
2022/10/28 07:45:38;;;;;;;12.23;4.68;;;;;;;-143.48;57.68;77932.84;5012454;28;20033;-71
2022/10/28 07:48:04;;;;;;;15.52;5.15;;;;;;;-143.48;53.96;77784.13;5013426;28;20437;-71
2022/10/28 07:50:29;;;;;;;19.60;5.00;;;;;;;-143.48;49.35;77603.69;5028647;28;20034;-71
2022/10/28 07:52:56;;;;;;;19.50;4.75;;;;;;;-143.48;50.97;77736.53;5013403;28;20026;-71
2022/10/28 07:55:22;;;;;;;18.65;4.60;;;;;;;-143.48;49.21;77617.56;5013340;28;20052;-72
2022/10/28 07:57:47;;;;;;;16.83;4.35;;;;;;;-143.48;46.79;77490.66;5028406;28;20385;-72
2022/10/28 08:00:13;;;;;;;22.23;4.97;;;;;;;-143.48;47.52;77534.28;5013282;28;20030;-72
2022/10/28 08:02:39;;;;;;;15.80;4.72;;;;;;;-143.48;51.63;77772.22;5013422;28;20018;-72
2022/10/28 08:05:04;;;;;;;14.77;4.88;;;;;;;-143.48;59.90;78075.63;5013253;28;20517;-72
2022/10/28 08:07:30;;;;;;;14.68;4.97;;;;;;;-143.48;65.04;78226.34;5013280;28;20033;-72
2022/10/28 08:09:56;;;;;;;25.05;5.57;;;;;;;-143.48;66.62;78262.03;5012910;28;20022;-71
2022/10/28 08:12:21;;;;;;;22.75;5.07;;;;;;;-143.48;66.56;78226.34;5013246;28;20396;-72
2022/10/28 08:14:47;;;;;;;19.98;5.20;;;;;;;-143.48;66.84;78242.22;5013396;28;20022;-73
2022/10/28 08:17:12;;;;;;;13.00;4.78;;;;;;;-143.48;67.61;78268.00;5013645;28;20390;-72
2022/10/28 08:19:37;;;;;;;21.83;5.32;;;;;;;-143.48;67.13;78238.25;5028840;28;20030;-71
2022/10/28 08:22:03;;;;;;;16.08;5.18;;;;;;;-143.48;67.58;78262.03;5013738;28;20105;-72
2022/10/28 08:24:28;;;;;;;15.60;4.68;;;;;;;-143.48;68.32;78275.94;5013353;28;20034;-72
2022/10/28 08:26:53;;;;;;;17.38;5.20;;;;;;;-143.48;67.84;78279.88;5013868;28;20060;-72
2022/10/28 08:29:19;;;;;;;23.40;4.88;;;;;;;-143.48;67.99;78275.94;5013771;28;20343;-72
2022/10/28 08:31:44;;;;;;;13.38;4.90;;;;;;;-143.48;68.32;78269.97;5012085;28;20032;-72
2022/10/28 08:34:09;;;;;;;13.68;5.65;;;;;;;-143.48;69.36;78297.75;5013752;28;20029;-72
2022/10/28 08:36:35;;;;;;;21.85;4.97;;;;;;;-143.48;68.83;78262.03;5013639;28;20029;-72
2022/10/28 08:39:03;;;;;;;18.60;5.20;;;;;;;-143.48;69.04;78269.97;5013526;28;20037;-72
2022/10/28 08:41:39;;;;;;;10.85;4.78;;;;;;;-143.48;69.20;78285.84;5013571;28;20100;-72
2022/10/28 08:44:29;;;;;;;19.25;4.72;;;;;;;-143.48;69.34;78283.84;5013453;28;20032;-72
2022/10/28 08:47:14;;;;;;;18.27;5.25;;;;;;;-143.48;69.69;78285.84;5013421;28;20153;-72
2022/10/28 08:49:40;;;;;;;13.80;4.75;;;;;;;-143.48;69.05;78269.97;5013547;28;20029;-73
2022/10/28 08:52:21;;;;;;;17.52;5.72;;;;;;;-143.48;68.50;78258.06;5013388;28;20033;-71
2022/10/28 08:54:54;;;;;;;19.45;4.85;;;;;;;-143.48;67.28;78186.69;5013180;28;20054;-72
2022/10/28 08:57:29;;;;;;;17.02;5.10;;;;;;;-143.48;64.15;78081.56;5013787;28;20026;-72
2022/10/28 08:59:55;;;;;;;15.75;5.00;;;;;;;-143.48;62.22;78077.63;5013466;28;20113;-72
2022/10/28 09:02:27;;;;;;;20.02;5.00;;;;;;;-143.48;64.90;78158.91;5013592;28;20096;-72
2022/10/28 09:05:03;;;;;;;21.50;5.28;;;;;;;-143.48;64.52;78113.31;5013361;28;20076;-72
2022/10/28 09:07:32;;;;;;;17.60;5.05;;;;;;;-143.48;63.22;78073.66;5013124;28;20084;-71
2022/10/28 09:09:58;;;;;;;15.93;4.90;;;;;;;-143.48;60.02;77964.56;5015446;28;20026;-73
2022/10/28 09:12:52;;;;;;;18.35;4.90;;;;;;;-143.48;56.85;77875.34;5015911;28;20037;-73
2022/10/28 09:15:59;;;;;;;18.30;4.95;;;;;;;-143.48;59.51;78020.09;5015833;28;20026;-72
2022/10/28 09:18:46;;;;;;;18.67;4.78;;;;;;;-143.48;63.25;78101.41;5015760;28;20030;-72
2022/10/28 09:21:18;;;;;;;23.33;5.50;;;;;;;-143.48;63.30;78095.47;5016215;28;20419;-72
2022/10/28 09:23:54;;;;;;;19.80;5.47;;;;;;;-143.48;63.86;78095.47;5015190;28;20036;-72
2022/10/28 09:26:27;;;;;;;16.10;4.65;;;;;;;-143.48;61.90;78016.13;5015343;28;20022;-71
2022/10/28 09:29:48;;;;;;;18.10;4.60;;;;;;;-143.48;60.69;78000.28;5016571;28;20029;-72
2022/10/28 09:32:24;;;;;;;20.38;4.93;;;;;;;-143.48;63.69;78093.47;4999244;28;20176;-72
2022/10/28 09:34:52;;;;;;;18.95;4.78;;;;;;;-143.48;64.73;78125.22;5015987;28;20022;-73
2022/10/28 09:38:01;;;;;;;18.45;4.95;;;;;;;-143.48;63.97;78111.31;5015773;28;20030;-72
2022/10/28 09:40:29;;;;;;;18.17;4.90;;;;;;;-143.48;63.66;78093.47;4978299;28;20241;-72
2022/10/28 09:43:17;;;;;;;17.15;5.00;;;;;;;-143.48;59.92;77887.25;5013463;28;20034;-72
2022/10/28 09:45:47;;;;;;;17.98;4.75;;;;;;;-143.48;50.74;77571.97;5031281;28;20034;-73
2022/10/28 09:48:21;;;;;;;18.20;4.85;;;;;;;-143.48;49.23;77522.38;5014705;28;20030;-72
2022/10/28 09:50:53;;;;;;;16.33;4.40;;;;;;;-143.48;52.43;77730.59;5016082;28;20100;-74
2022/10/28 09:53:47;;;;;;;20.63;4.80;;;;;;;-143.48;49.36;77589.81;5015698;28;20423;-72
2022/10/28 09:56:13;;;;;;;20.98;4.50;;;;;;;-143.48;48.82;77522.38;5014760;28;20041;-74
2022/10/28 09:58:45;;;;;;;20.27;4.43;;;;;;;-143.48;45.93;77417.31;5016032;28;20038;-73
2022/10/28 10:01:11;;;;;;;21.08;4.75;;;;;;;-143.48;46.73;77425.25;5014341;28;20040;-73
2022/10/28 10:03:38;;;;;;;23.90;4.75;;;;;;;-143.48;44.00;77280.50;5015436;28;20412;-73
2022/10/28 10:06:20;;;;;;;18.38;4.50;;;;;;;-143.48;44.99;77405.41;5016499;28;20037;-73
2022/10/28 10:08:47;;;;;;;15.43;4.53;;;;;;;-143.48;46.97;77498.59;5015818;28;20026;-71
2022/10/28 10:11:21;;;;;;;15.35;4.63;;;;;;;-143.48;46.20;77405.41;5030799;28;20026;-72
2022/10/28 10:13:47;;;;;;;20.20;4.78;;;;;;;-143.48;45.87;77435.16;5015802;28;20040;-73
2022/10/28 10:16:46;;;;;;;16.33;4.63;;;;;;;-143.48;48.94;77597.75;5014313;28;20025;-70
2022/10/28 10:19:12;;;;;;;14.20;4.07;;;;;;;-143.48;52.02;77706.78;5014934;28;20105;-71
2022/10/28 10:21:46;;;;;;;19.67;4.57;;;;;;;-143.48;52.17;77694.91;5014135;28;20529;-71
2022/10/28 10:24:32;;;;;;;22.08;5.13;;;;;;;-143.48;52.74;77734.56;5014044;28;20569;-74
2022/10/28 10:27:08;;;;;;;17.15;4.72;;;;;;;-143.48;53.77;77712.75;5014117;28;20092;-70
2022/10/28 10:29:34;;;;;;;17.38;4.63;;;;;;;-143.48;48.03;77476.78;5015147;28;20037;-70
2022/10/28 10:32:32;;;;;;;16.20;4.60;;;;;;;-143.48;49.14;77562.06;5015166;28;20057;-69
2022/10/28 10:35:03;;;;;;;19.40;4.85;;;;;;;-143.48;49.60;77552.13;4992572;28;20041;-71
2022/10/28 10:37:32;;;;;;;19.25;4.82;;;;;;;-143.48;48.70;77486.69;5013898;28;20030;-71
2022/10/28 10:40:01;;;;;;;16.08;4.60;;;;;;;-143.48;50.17;77568.00;5014747;28;20068;-71
2022/10/28 10:42:26;;;;;;;10.60;4.53;;;;;;;-143.48;50.04;77558.09;5014994;28;20496;-71
2022/10/28 10:45:15;;;;;;;21.55;4.40;;;;;;;-143.48;49.36;77508.50;5013893;28;20026;-71
2022/10/28 10:47:41;;;;;;;19.45;4.70;;;;;;;-143.48;48.32;77456.97;5011023;28;20038;-70
2022/10/28 10:50:36;;;;;;;17.17;4.47;;;;;;;-143.48;47.93;77468.84;5013543;28;20029;-71
2022/10/28 10:53:02;;;;;;;14.13;4.40;;;;;;;-143.48;49.95;77566.00;5014052;28;20382;-71
2022/10/28 10:55:34;;;;;;;16.73;3.95;;;;;;;-143.48;52.73;77692.91;5014179;28;20050;-70
2022/10/28 10:58:01;;;;;;;19.30;4.55;;;;;;;-143.48;53.26;77690.94;5014143;28;20053;-71
2022/10/28 11:00:34;;;;;;;20.63;4.30;;;;;;;-143.48;54.70;77760.34;5013697;28;20496;-71
2022/10/28 11:03:00;;;;;;;14.77;4.30;;;;;;;-143.48;54.67;77740.50;5014132;28;20048;-70
2022/10/28 11:05:27;;;;;;;21.70;4.68;;;;;;;-143.48;55.32;77784.13;5014762;28;20045;-70
2022/10/28 11:07:52;;;;;;;18.85;5.30;;;;;;;-143.48;55.14;77738.53;5012820;28;20401;-71
2022/10/28 11:10:22;;;;;;;19.15;4.53;;;;;;;-143.48;55.57;77758.34;5013791;28;20037;-71
2022/10/28 11:12:53;;;;;;;13.25;4.35;;;;;;;-143.48;54.48;77702.84;5014288;28;20084;-71
2022/10/28 11:15:23;;;;;;;15.50;3.80;;;;;;;-143.48;55.96;77778.19;5014365;28;20436;-71
2022/10/28 11:18:15;;;;;;;22.90;5.10;;;;;;;-143.48;57.07;77794.03;5014475;28;20104;-70
2022/10/28 11:20:56;;;;;;;22.00;4.90;;;;;;;-143.48;56.18;77790.06;5012186;28;20034;-70
2022/10/28 11:23:36;;;;;;;19.27;4.30;;;;;;;-143.48;57.08;77778.19;5014011;28;20037;-70